This is the latest recevied weather packets stored in our database for station/object KE8WAY. If no packets are shown the sender has not sent any weather packets the latest 10 day(s).
| Time | Temp. | Humidity | Pressure | Rain* | Wind** | Luminosity | Snow |
|---|---|---|---|---|---|---|---|
| 1778174202 | 12.78° C | 47% | 1012.2 hPa | 0 mm | - | 765 W/m² | - |
| 1778173899 | 13.33° C | 39% | 1012.3 hPa | 0 mm | - | 741 W/m² | - |
| 1778173596 | 13.33° C | 40% | 1012.3 hPa | 0 mm | - | 745 W/m² | - |
| 1778173293 | 12.78° C | 42% | 1012.2 hPa | 0 mm | - | 229 W/m² | - |
| 1778172989 | 12.78° C | 40% | 1012.4 hPa | 0 mm | - | 222 W/m² | - |
| 1778172685 | 13.33° C | 43% | 1012.4 hPa | 0 mm | - | 750 W/m² | - |
| 1778172381 | 12.78° C | 46% | 1012.3 hPa | 0 mm | - | 800 W/m² | - |
| 1778172078 | 12.78° C | 43% | 1012.6 hPa | 0 mm | - | 787 W/m² | - |
| 1778171775 | 12.78° C | 45% | 1012.5 hPa | 0 mm | - | 840 W/m² | - |
| 1778171474 | 12.78° C | 44% | 1012.7 hPa | 0 mm | - | 439 W/m² | - |
| 1778171168 | 12.78° C | 45% | 1012.7 hPa | 0 mm | - | 891 W/m² | - |
| 1778170866 | 12.22° C | 45% | 1012.8 hPa | 0 mm | - | 826 W/m² | - |
| 1778170561 | 12.22° C | 46% | 1012.5 hPa | 0 mm | - | 252 W/m² | - |
| 1778170258 | 12.78° C | 46% | 1012.4 hPa | 0 mm | - | 881 W/m² | - |
| 1778169954 | 12.78° C | 42% | 1012.5 hPa | 0 mm | - | 231 W/m² | - |
| 1778169651 | 12.22° C | 45% | 1012.3 hPa | 0 mm | - | 816 W/m² | - |
| 1778169346 | 11.67° C | 45% | 1012.4 hPa | 0 mm | - | 847 W/m² | - |
| 1778169044 | 12.78° C | 48% | 1012.5 hPa | 0 mm | - | 723 W/m² | - |
| 1778168740 | 12.22° C | 47% | 1012.6 hPa | 0 mm | - | 863 W/m² | - |
| 1778168437 | 11.67° C | 47% | 1012.4 hPa | 0 mm | - | 310 W/m² | - |
| 1778168134 | 12.22° C | 43% | 1012.6 hPa | 0 mm | - | 505 W/m² | - |
| 1778167825 | 12.22° C | 39% | 1012.5 hPa | 0 mm | - | 855 W/m² | - |
| 1778167520 | 12.22° C | 45% | 1012.2 hPa | 0 mm | - | 758 W/m² | - |
| 1778167217 | 12.22° C | 45% | 1012.3 hPa | 0 mm | - | 849 W/m² | - |
| 1778166913 | 12.22° C | 46% | 1012.3 hPa | 0 mm | - | 845 W/m² | - |
* Rain latest hour (hover to see other rain measurements)
** Current wind speed in m/s (hover to see current wind gust speed)